sensor_id;sensor_type;location;lat;lon;timestamp;P1;durP1;ratioP1;P2;durP2;ratioP2
44328;SDS011;30039;51.462;6.892;2023-12-29T00:02:16;7.40;;;1.20;;
44328;SDS011;30039;51.462;6.892;2023-12-29T00:05:02;4.95;;;1.25;;
44328;SDS011;30039;51.462;6.892;2023-12-29T00:07:47;5.72;;;1.13;;
44328;SDS011;30039;51.462;6.892;2023-12-29T00:10:33;3.88;;;1.27;;
44328;SDS011;30039;51.462;6.892;2023-12-29T00:13:19;3.95;;;1.08;;
44328;SDS011;30039;51.462;6.892;2023-12-29T00:16:08;8.35;;;1.30;;
44328;SDS011;30039;51.462;6.892;2023-12-29T00:18:54;4.43;;;1.05;;
44328;SDS011;30039;51.462;6.892;2023-12-29T00:21:39;6.88;;;1.55;;
44328;SDS011;30039;51.462;6.892;2023-12-29T00:24:25;5.50;;;1.30;;
44328;SDS011;30039;51.462;6.892;2023-12-29T00:27:11;7.65;;;1.08;;
44328;SDS011;30039;51.462;6.892;2023-12-29T00:29:57;4.30;;;1.27;;
44328;SDS011;30039;51.462;6.892;2023-12-29T00:32:42;3.88;;;1.13;;
44328;SDS011;30039;51.462;6.892;2023-12-29T00:35:28;6.05;;;1.35;;
44328;SDS011;30039;51.462;6.892;2023-12-29T00:38:14;4.07;;;1.00;;
44328;SDS011;30039;51.462;6.892;2023-12-29T00:40:59;2.97;;;0.90;;
44328;SDS011;30039;51.462;6.892;2023-12-29T00:43:45;1.60;;;0.93;;
44328;SDS011;30039;51.462;6.892;2023-12-29T00:46:31;7.93;;;1.27;;
44328;SDS011;30039;51.462;6.892;2023-12-29T00:49:16;2.70;;;0.93;;
44328;SDS011;30039;51.462;6.892;2023-12-29T00:52:02;4.93;;;1.15;;
44328;SDS011;30039;51.462;6.892;2023-12-29T00:54:48;4.90;;;1.20;;
44328;SDS011;30039;51.462;6.892;2023-12-29T00:57:34;5.03;;;1.10;;
44328;SDS011;30039;51.462;6.892;2023-12-29T01:00:19;2.10;;;0.90;;
44328;SDS011;30039;51.462;6.892;2023-12-29T01:03:05;3.50;;;1.23;;
44328;SDS011;30039;51.462;6.892;2023-12-29T01:05:51;4.75;;;1.05;;
44328;SDS011;30039;51.462;6.892;2023-12-29T01:08:37;3.35;;;1.20;;
44328;SDS011;30039;51.462;6.892;2023-12-29T01:11:22;5.03;;;1.17;;
44328;SDS011;30039;51.462;6.892;2023-12-29T01:14:08;5.65;;;1.00;;
44328;SDS011;30039;51.462;6.892;2023-12-29T01:16:54;4.07;;;1.27;;
44328;SDS011;30039;51.462;6.892;2023-12-29T01:19:39;3.35;;;1.23;;
44328;SDS011;30039;51.462;6.892;2023-12-29T01:22:25;3.25;;;1.00;;
44328;SDS011;30039;51.462;6.892;2023-12-29T01:25:10;5.80;;;1.23;;
44328;SDS011;30039;51.462;6.892;2023-12-29T01:27:56;4.03;;;1.30;;
44328;SDS011;30039;51.462;6.892;2023-12-29T01:30:42;4.65;;;0.98;;
44328;SDS011;30039;51.462;6.892;2023-12-29T01:33:27;4.75;;;1.00;;
44328;SDS011;30039;51.462;6.892;2023-12-29T01:36:19;4.57;;;1.20;;
44328;SDS011;30039;51.462;6.892;2023-12-29T01:39:07;4.68;;;1.30;;
44328;SDS011;30039;51.462;6.892;2023-12-29T01:41:55;7.03;;;1.20;;
44328;SDS011;30039;51.462;6.892;2023-12-29T01:44:40;3.45;;;1.10;;
44328;SDS011;30039;51.462;6.892;2023-12-29T01:47:26;6.70;;;1.20;;
44328;SDS011;30039;51.462;6.892;2023-12-29T01:50:12;3.63;;;1.17;;
44328;SDS011;30039;51.462;6.892;2023-12-29T01:52:57;5.47;;;1.30;;
44328;SDS011;30039;51.462;6.892;2023-12-29T01:55:43;4.60;;;1.40;;
44328;SDS011;30039;51.462;6.892;2023-12-29T01:58:29;5.93;;;1.40;;
44328;SDS011;30039;51.462;6.892;2023-12-29T02:01:15;5.38;;;1.40;;
44328;SDS011;30039;51.462;6.892;2023-12-29T02:04:02;5.80;;;1.30;;
44328;SDS011;30039;51.462;6.892;2023-12-29T02:06:48;5.30;;;1.40;;
44328;SDS011;30039;51.462;6.892;2023-12-29T02:09:34;5.85;;;1.20;;
44328;SDS011;30039;51.462;6.892;2023-12-29T02:12:20;6.38;;;1.52;;
44328;SDS011;30039;51.462;6.892;2023-12-29T02:15:05;4.70;;;1.30;;
44328;SDS011;30039;51.462;6.892;2023-12-29T02:17:54;4.75;;;1.45;;
44328;SDS011;30039;51.462;6.892;2023-12-29T02:20:41;5.15;;;1.40;;
44328;SDS011;30039;51.462;6.892;2023-12-29T02:23:27;6.95;;;1.60;;
44328;SDS011;30039;51.462;6.892;2023-12-29T02:26:13;5.75;;;1.40;;
44328;SDS011;30039;51.462;6.892;2023-12-29T02:29:02;4.10;;;1.25;;
44328;SDS011;30039;51.462;6.892;2023-12-29T02:31:50;8.02;;;1.58;;
44328;SDS011;30039;51.462;6.892;2023-12-29T02:34:38;5.15;;;1.75;;
44328;SDS011;30039;51.462;6.892;2023-12-29T02:37:26;5.38;;;1.38;;
44328;SDS011;30039;51.462;6.892;2023-12-29T02:40:12;4.65;;;1.67;;
44328;SDS011;30039;51.462;6.892;2023-12-29T02:42:57;4.60;;;1.35;;
44328;SDS011;30039;51.462;6.892;2023-12-29T02:45:43;6.95;;;2.00;;
44328;SDS011;30039;51.462;6.892;2023-12-29T02:48:28;4.03;;;1.50;;
44328;SDS011;30039;51.462;6.892;2023-12-29T02:51:14;4.80;;;1.63;;
44328;SDS011;30039;51.462;6.892;2023-12-29T02:54:00;5.75;;;1.58;;
44328;SDS011;30039;51.462;6.892;2023-12-29T02:56:45;5.25;;;1.20;;
44328;SDS011;30039;51.462;6.892;2023-12-29T02:59:31;3.08;;;1.40;;
44328;SDS011;30039;51.462;6.892;2023-12-29T03:02:17;7.07;;;1.67;;
44328;SDS011;30039;51.462;6.892;2023-12-29T03:05:03;13.50;;;1.58;;
44328;SDS011;30039;51.462;6.892;2023-12-29T03:07:48;7.10;;;1.80;;
44328;SDS011;30039;51.462;6.892;2023-12-29T03:10:34;8.02;;;1.50;;
44328;SDS011;30039;51.462;6.892;2023-12-29T03:13:19;7.32;;;1.65;;
44328;SDS011;30039;51.462;6.892;2023-12-29T03:16:05;7.32;;;1.52;;
44328;SDS011;30039;51.462;6.892;2023-12-29T03:18:51;7.88;;;1.38;;
44328;SDS011;30039;51.462;6.892;2023-12-29T03:21:36;4.28;;;1.55;;
44328;SDS011;30039;51.462;6.892;2023-12-29T03:24:22;4.35;;;1.30;;
44328;SDS011;30039;51.462;6.892;2023-12-29T03:27:08;9.35;;;1.65;;
44328;SDS011;30039;51.462;6.892;2023-12-29T03:29:53;8.50;;;1.65;;
44328;SDS011;30039;51.462;6.892;2023-12-29T03:32:39;4.45;;;1.50;;
44328;SDS011;30039;51.462;6.892;2023-12-29T03:35:25;4.38;;;1.42;;
44328;SDS011;30039;51.462;6.892;2023-12-29T03:38:10;7.40;;;1.40;;
44328;SDS011;30039;51.462;6.892;2023-12-29T03:40:56;4.38;;;1.27;;
44328;SDS011;30039;51.462;6.892;2023-12-29T03:43:41;7.20;;;1.40;;
44328;SDS011;30039;51.462;6.892;2023-12-29T03:46:27;4.10;;;1.23;;
44328;SDS011;30039;51.462;6.892;2023-12-29T03:49:13;5.47;;;1.42;;
44328;SDS011;30039;51.462;6.892;2023-12-29T03:51:58;5.25;;;1.40;;
44328;SDS011;30039;51.462;6.892;2023-12-29T03:54:44;4.50;;;1.33;;
44328;SDS011;30039;51.462;6.892;2023-12-29T03:57:30;9.00;;;1.60;;
44328;SDS011;30039;51.462;6.892;2023-12-29T04:00:16;3.60;;;1.20;;
44328;SDS011;30039;51.462;6.892;2023-12-29T04:03:02;4.75;;;1.52;;
44328;SDS011;30039;51.462;6.892;2023-12-29T04:05:48;3.25;;;1.40;;
44328;SDS011;30039;51.462;6.892;2023-12-29T04:08:34;9.05;;;1.80;;
44328;SDS011;30039;51.462;6.892;2023-12-29T04:11:19;4.88;;;1.50;;
44328;SDS011;30039;51.462;6.892;2023-12-29T04:14:05;5.93;;;1.42;;
44328;SDS011;30039;51.462;6.892;2023-12-29T04:16:51;8.32;;;1.35;;
44328;SDS011;30039;51.462;6.892;2023-12-29T04:19:36;9.23;;;1.83;;
44328;SDS011;30039;51.462;6.892;2023-12-29T04:22:22;8.02;;;1.92;;
44328;SDS011;30039;51.462;6.892;2023-12-29T04:25:08;8.18;;;2.00;;
44328;SDS011;30039;51.462;6.892;2023-12-29T04:27:53;5.47;;;1.60;;
44328;SDS011;30039;51.462;6.892;2023-12-29T04:30:39;8.68;;;2.38;;
44328;SDS011;30039;51.462;6.892;2023-12-29T04:33:25;6.43;;;1.50;;
44328;SDS011;30039;51.462;6.892;2023-12-29T04:36:11;5.18;;;1.67;;
44328;SDS011;30039;51.462;6.892;2023-12-29T04:38:57;7.43;;;1.90;;
44328;SDS011;30039;51.462;6.892;2023-12-29T04:41:42;8.50;;;1.70;;
44328;SDS011;30039;51.462;6.892;2023-12-29T04:44:28;5.97;;;1.65;;
44328;SDS011;30039;51.462;6.892;2023-12-29T04:47:13;6.25;;;1.40;;
44328;SDS011;30039;51.462;6.892;2023-12-29T04:49:59;6.53;;;1.50;;
44328;SDS011;30039;51.462;6.892;2023-12-29T04:52:45;4.35;;;1.40;;
44328;SDS011;30039;51.462;6.892;2023-12-29T04:55:30;6.63;;;1.45;;
44328;SDS011;30039;51.462;6.892;2023-12-29T04:58:19;4.78;;;1.50;;
44328;SDS011;30039;51.462;6.892;2023-12-29T05:01:04;7.55;;;1.75;;
44328;SDS011;30039;51.462;6.892;2023-12-29T05:03:50;5.82;;;1.40;;
44328;SDS011;30039;51.462;6.892;2023-12-29T05:06:35;7.90;;;1.70;;
44328;SDS011;30039;51.462;6.892;2023-12-29T05:09:21;7.43;;;1.80;;
44328;SDS011;30039;51.462;6.892;2023-12-29T05:12:07;8.63;;;1.67;;
44328;SDS011;30039;51.462;6.892;2023-12-29T05:14:53;5.47;;;1.70;;
44328;SDS011;30039;51.462;6.892;2023-12-29T05:17:38;8.48;;;1.83;;
44328;SDS011;30039;51.462;6.892;2023-12-29T05:20:24;5.40;;;1.90;;
44328;SDS011;30039;51.462;6.892;2023-12-29T05:23:10;10.00;;;1.85;;
44328;SDS011;30039;51.462;6.892;2023-12-29T05:25:55;4.28;;;1.40;;
44328;SDS011;30039;51.462;6.892;2023-12-29T05:28:41;6.35;;;1.58;;
44328;SDS011;30039;51.462;6.892;2023-12-29T05:31:27;3.92;;;1.40;;
44328;SDS011;30039;51.462;6.892;2023-12-29T05:34:12;8.80;;;1.90;;
44328;SDS011;30039;51.462;6.892;2023-12-29T05:36:58;6.70;;;1.73;;
44328;SDS011;30039;51.462;6.892;2023-12-29T05:39:43;11.00;;;1.80;;
44328;SDS011;30039;51.462;6.892;2023-12-29T05:42:29;8.63;;;1.83;;
44328;SDS011;30039;51.462;6.892;2023-12-29T05:45:15;6.70;;;1.73;;
44328;SDS011;30039;51.462;6.892;2023-12-29T05:48:01;8.50;;;1.58;;
44328;SDS011;30039;51.462;6.892;2023-12-29T05:50:47;10.48;;;1.73;;
44328;SDS011;30039;51.462;6.892;2023-12-29T05:53:33;5.07;;;1.25;;
44328;SDS011;30039;51.462;6.892;2023-12-29T05:56:18;7.68;;;2.00;;
44328;SDS011;30039;51.462;6.892;2023-12-29T05:59:04;6.60;;;1.52;;
44328;SDS011;30039;51.462;6.892;2023-12-29T06:01:49;5.80;;;1.58;;
44328;SDS011;30039;51.462;6.892;2023-12-29T06:04:35;7.78;;;1.52;;
44328;SDS011;30039;51.462;6.892;2023-12-29T06:07:20;11.10;;;1.77;;
44328;SDS011;30039;51.462;6.892;2023-12-29T06:10:06;3.78;;;1.73;;
44328;SDS011;30039;51.462;6.892;2023-12-29T06:12:53;5.45;;;1.70;;
44328;SDS011;30039;51.462;6.892;2023-12-29T06:15:39;10.40;;;1.92;;
44328;SDS011;30039;51.462;6.892;2023-12-29T06:18:24;7.53;;;1.55;;
44328;SDS011;30039;51.462;6.892;2023-12-29T06:21:10;5.72;;;1.67;;
44328;SDS011;30039;51.462;6.892;2023-12-29T06:23:55;6.10;;;1.60;;
44328;SDS011;30039;51.462;6.892;2023-12-29T06:26:41;10.57;;;1.65;;
44328;SDS011;30039;51.462;6.892;2023-12-29T06:29:28;8.32;;;1.98;;
44328;SDS011;30039;51.462;6.892;2023-12-29T06:32:14;6.03;;;1.65;;
44328;SDS011;30039;51.462;6.892;2023-12-29T06:34:59;11.45;;;1.90;;
44328;SDS011;30039;51.462;6.892;2023-12-29T06:37:45;5.75;;;1.50;;
44328;SDS011;30039;51.462;6.892;2023-12-29T06:40:31;5.55;;;1.35;;
44328;SDS011;30039;51.462;6.892;2023-12-29T06:43:16;4.57;;;1.17;;
44328;SDS011;30039;51.462;6.892;2023-12-29T06:46:02;2.40;;;1.08;;
44328;SDS011;30039;51.462;6.892;2023-12-29T06:48:47;5.32;;;1.42;;
44328;SDS011;30039;51.462;6.892;2023-12-29T06:51:35;8.73;;;1.77;;
44328;SDS011;30039;51.462;6.892;2023-12-29T06:54:26;10.10;;;1.52;;
44328;SDS011;30039;51.462;6.892;2023-12-29T06:57:11;5.43;;;1.30;;
44328;SDS011;30039;51.462;6.892;2023-12-29T06:59:59;6.97;;;1.25;;
44328;SDS011;30039;51.462;6.892;2023-12-29T07:02:45;5.97;;;1.20;;
44328;SDS011;30039;51.462;6.892;2023-12-29T07:05:31;5.03;;;1.10;;
44328;SDS011;30039;51.462;6.892;2023-12-29T07:08:17;7.53;;;1.30;;
44328;SDS011;30039;51.462;6.892;2023-12-29T07:11:03;9.05;;;1.70;;
44328;SDS011;30039;51.462;6.892;2023-12-29T07:13:49;5.18;;;1.63;;
44328;SDS011;30039;51.462;6.892;2023-12-29T07:16:34;8.15;;;1.52;;
44328;SDS011;30039;51.462;6.892;2023-12-29T07:19:20;7.15;;;1.60;;
44328;SDS011;30039;51.462;6.892;2023-12-29T07:22:06;4.85;;;1.35;;
44328;SDS011;30039;51.462;6.892;2023-12-29T07:24:52;3.78;;;1.40;;
44328;SDS011;30039;51.462;6.892;2023-12-29T07:27:38;5.78;;;1.35;;
44328;SDS011;30039;51.462;6.892;2023-12-29T07:30:24;6.88;;;1.60;;
44328;SDS011;30039;51.462;6.892;2023-12-29T07:33:09;6.95;;;1.55;;
44328;SDS011;30039;51.462;6.892;2023-12-29T07:35:55;4.18;;;1.15;;
44328;SDS011;30039;51.462;6.892;2023-12-29T07:38:40;3.40;;;1.45;;
44328;SDS011;30039;51.462;6.892;2023-12-29T07:41:27;6.47;;;1.30;;
44328;SDS011;30039;51.462;6.892;2023-12-29T07:44:13;7.32;;;1.40;;
44328;SDS011;30039;51.462;6.892;2023-12-29T07:46:58;7.00;;;1.13;;
44328;SDS011;30039;51.462;6.892;2023-12-29T07:49:44;6.47;;;1.33;;
44328;SDS011;30039;51.462;6.892;2023-12-29T07:52:30;4.07;;;1.10;;
44328;SDS011;30039;51.462;6.892;2023-12-29T07:55:15;6.60;;;1.30;;
44328;SDS011;30039;51.462;6.892;2023-12-29T07:58:04;3.33;;;1.02;;
44328;SDS011;30039;51.462;6.892;2023-12-29T08:00:49;5.97;;;1.20;;
44328;SDS011;30039;51.462;6.892;2023-12-29T08:03:35;5.88;;;1.50;;
44328;SDS011;30039;51.462;6.892;2023-12-29T08:06:21;6.07;;;1.48;;
44328;SDS011;30039;51.462;6.892;2023-12-29T08:09:07;8.43;;;1.40;;
44328;SDS011;30039;51.462;6.892;2023-12-29T08:11:53;6.88;;;1.30;;
44328;SDS011;30039;51.462;6.892;2023-12-29T08:14:38;6.10;;;1.20;;
44328;SDS011;30039;51.462;6.892;2023-12-29T08:17:24;6.68;;;1.40;;
44328;SDS011;30039;51.462;6.892;2023-12-29T08:20:10;3.20;;;0.98;;
44328;SDS011;30039;51.462;6.892;2023-12-29T08:22:55;6.75;;;1.27;;
44328;SDS011;30039;51.462;6.892;2023-12-29T08:25:42;6.07;;;1.55;;
44328;SDS011;30039;51.462;6.892;2023-12-29T08:28:28;5.45;;;1.40;;
44328;SDS011;30039;51.462;6.892;2023-12-29T08:31:14;3.38;;;0.93;;
44328;SDS011;30039;51.462;6.892;2023-12-29T08:34:00;4.40;;;0.90;;
44328;SDS011;30039;51.462;6.892;2023-12-29T08:36:45;5.60;;;1.27;;
44328;SDS011;30039;51.462;6.892;2023-12-29T08:39:31;5.47;;;1.45;;
44328;SDS011;30039;51.462;6.892;2023-12-29T08:42:16;5.65;;;1.17;;
44328;SDS011;30039;51.462;6.892;2023-12-29T08:45:02;3.80;;;0.90;;
44328;SDS011;30039;51.462;6.892;2023-12-29T08:47:49;5.50;;;1.10;;
44328;SDS011;30039;51.462;6.892;2023-12-29T08:50:34;5.93;;;1.17;;
44328;SDS011;30039;51.462;6.892;2023-12-29T08:53:20;7.80;;;1.40;;
44328;SDS011;30039;51.462;6.892;2023-12-29T08:56:05;3.95;;;1.08;;
44328;SDS011;30039;51.462;6.892;2023-12-29T08:58:51;4.18;;;0.90;;
44328;SDS011;30039;51.462;6.892;2023-12-29T09:01:37;2.15;;;0.60;;
44328;SDS011;30039;51.462;6.892;2023-12-29T09:04:23;2.83;;;0.75;;
44328;SDS011;30039;51.462;6.892;2023-12-29T09:07:09;5.13;;;0.85;;
44328;SDS011;30039;51.462;6.892;2023-12-29T09:09:54;1.95;;;1.05;;
44328;SDS011;30039;51.462;6.892;2023-12-29T09:12:40;1.35;;;0.60;;
44328;SDS011;30039;51.462;6.892;2023-12-29T09:15:26;2.22;;;0.80;;
44328;SDS011;30039;51.462;6.892;2023-12-29T09:18:12;1.58;;;0.70;;
44328;SDS011;30039;51.462;6.892;2023-12-29T09:20:57;2.70;;;0.80;;
44328;SDS011;30039;51.462;6.892;2023-12-29T09:23:43;2.63;;;0.88;;
44328;SDS011;30039;51.462;6.892;2023-12-29T09:26:28;3.55;;;0.77;;
44328;SDS011;30039;51.462;6.892;2023-12-29T09:29:14;1.65;;;0.60;;
44328;SDS011;30039;51.462;6.892;2023-12-29T09:31:59;1.90;;;0.52;;
44328;SDS011;30039;51.462;6.892;2023-12-29T09:34:45;2.40;;;0.90;;
44328;SDS011;30039;51.462;6.892;2023-12-29T09:37:31;1.70;;;0.80;;
44328;SDS011;30039;51.462;6.892;2023-12-29T09:40:16;2.72;;;0.70;;
44328;SDS011;30039;51.462;6.892;2023-12-29T09:43:02;1.95;;;0.63;;
44328;SDS011;30039;51.462;6.892;2023-12-29T09:45:48;2.08;;;0.77;;
44328;SDS011;30039;51.462;6.892;2023-12-29T09:48:37;3.40;;;1.27;;
44328;SDS011;30039;51.462;6.892;2023-12-29T09:51:23;2.60;;;0.47;;
44328;SDS011;30039;51.462;6.892;2023-12-29T09:54:09;1.42;;;0.57;;
44328;SDS011;30039;51.462;6.892;2023-12-29T09:56:55;1.52;;;0.80;;
44328;SDS011;30039;51.462;6.892;2023-12-29T09:59:41;1.95;;;0.70;;
44328;SDS011;30039;51.462;6.892;2023-12-29T10:02:27;1.58;;;0.55;;
44328;SDS011;30039;51.462;6.892;2023-12-29T10:05:14;2.28;;;0.70;;
44328;SDS011;30039;51.462;6.892;2023-12-29T10:08:02;1.75;;;0.80;;
44328;SDS011;30039;51.462;6.892;2023-12-29T10:10:48;0.93;;;0.60;;
44328;SDS011;30039;51.462;6.892;2023-12-29T10:13:36;2.95;;;0.80;;
44328;SDS011;30039;51.462;6.892;2023-12-29T10:16:32;1.45;;;0.70;;
44328;SDS011;30039;51.462;6.892;2023-12-29T10:19:40;2.53;;;0.85;;
44328;SDS011;30039;51.462;6.892;2023-12-29T10:22:35;1.85;;;0.82;;
44328;SDS011;30039;51.462;6.892;2023-12-29T10:25:26;2.17;;;0.70;;
44328;SDS011;30039;51.462;6.892;2023-12-29T10:28:12;1.10;;;0.70;;
44328;SDS011;30039;51.462;6.892;2023-12-29T10:30:58;0.50;;;0.47;;
44328;SDS011;30039;51.462;6.892;2023-12-29T10:33:44;1.98;;;0.75;;
44328;SDS011;30039;51.462;6.892;2023-12-29T10:36:48;1.58;;;0.60;;
44328;SDS011;30039;51.462;6.892;2023-12-29T10:39:37;1.90;;;0.68;;
44328;SDS011;30039;51.462;6.892;2023-12-29T10:42:23;1.75;;;0.60;;
44328;SDS011;30039;51.462;6.892;2023-12-29T10:45:09;0.93;;;0.60;;
44328;SDS011;30039;51.462;6.892;2023-12-29T10:47:55;1.75;;;0.95;;
44328;SDS011;30039;51.462;6.892;2023-12-29T10:50:44;3.10;;;2.08;;
44328;SDS011;30039;51.462;6.892;2023-12-29T10:53:31;3.42;;;1.20;;
44328;SDS011;30039;51.462;6.892;2023-12-29T10:56:17;4.82;;;1.30;;
44328;SDS011;30039;51.462;6.892;2023-12-29T10:59:05;5.57;;;1.00;;
44328;SDS011;30039;51.462;6.892;2023-12-29T11:01:51;2.42;;;1.00;;
44328;SDS011;30039;51.462;6.892;2023-12-29T11:04:39;6.18;;;1.20;;
44328;SDS011;30039;51.462;6.892;2023-12-29T11:07:39;2.47;;;1.15;;
44328;SDS011;30039;51.462;6.892;2023-12-29T11:10:25;2.80;;;0.90;;
44328;SDS011;30039;51.462;6.892;2023-12-29T11:13:11;1.98;;;1.20;;
44328;SDS011;30039;51.462;6.892;2023-12-29T11:15:59;5.07;;;0.98;;
44328;SDS011;30039;51.462;6.892;2023-12-29T11:18:47;2.33;;;0.90;;
44328;SDS011;30039;51.462;6.892;2023-12-29T11:21:32;1.52;;;0.98;;
44328;SDS011;30039;51.462;6.892;2023-12-29T11:24:20;3.42;;;1.08;;
44328;SDS011;30039;51.462;6.892;2023-12-29T11:27:06;3.33;;;1.40;;
44328;SDS011;30039;51.462;6.892;2023-12-29T11:29:52;1.45;;;0.85;;
44328;SDS011;30039;51.462;6.892;2023-12-29T11:35:33;0.98;;;0.75;;
44328;SDS011;30039;51.462;6.892;2023-12-29T11:41:08;2.17;;;1.15;;
44328;SDS011;30039;51.462;6.892;2023-12-29T11:43:55;2.65;;;1.10;;
44328;SDS011;30039;51.462;6.892;2023-12-29T11:46:43;4.13;;;1.33;;
44328;SDS011;30039;51.462;6.892;2023-12-29T11:52:36;2.80;;;1.20;;
44328;SDS011;30039;51.462;6.892;2023-12-29T11:55:23;2.70;;;1.02;;
44328;SDS011;30039;51.462;6.892;2023-12-29T11:58:23;5.93;;;1.52;;
44328;SDS011;30039;51.462;6.892;2023-12-29T12:01:09;2.55;;;1.17;;
44328;SDS011;30039;51.462;6.892;2023-12-29T12:03:55;4.22;;;1.30;;
44328;SDS011;30039;51.462;6.892;2023-12-29T12:06:41;3.65;;;1.58;;
44328;SDS011;30039;51.462;6.892;2023-12-29T12:09:27;5.07;;;1.23;;
44328;SDS011;30039;51.462;6.892;2023-12-29T12:12:12;4.47;;;1.52;;
44328;SDS011;30039;51.462;6.892;2023-12-29T12:14:58;5.00;;;1.98;;
44328;SDS011;30039;51.462;6.892;2023-12-29T12:17:44;5.45;;;1.40;;
44328;SDS011;30039;51.462;6.892;2023-12-29T12:20:32;3.22;;;1.40;;
44328;SDS011;30039;51.462;6.892;2023-12-29T12:23:17;3.65;;;1.60;;
44328;SDS011;30039;51.462;6.892;2023-12-29T12:26:04;4.22;;;1.42;;
44328;SDS011;30039;51.462;6.892;2023-12-29T12:28:53;2.20;;;1.15;;
44328;SDS011;30039;51.462;6.892;2023-12-29T12:31:52;4.30;;;1.33;;
44328;SDS011;30039;51.462;6.892;2023-12-29T12:34:38;3.45;;;1.20;;
44328;SDS011;30039;51.462;6.892;2023-12-29T12:37:28;2.05;;;1.20;;
44328;SDS011;30039;51.462;6.892;2023-12-29T12:40:26;3.30;;;1.00;;
44328;SDS011;30039;51.462;6.892;2023-12-29T12:43:13;1.98;;;1.00;;
44328;SDS011;30039;51.462;6.892;2023-12-29T12:45:59;1.85;;;1.10;;
44328;SDS011;30039;51.462;6.892;2023-12-29T12:48:46;3.22;;;1.10;;
44328;SDS011;30039;51.462;6.892;2023-12-29T12:51:32;3.35;;;0.98;;
44328;SDS011;30039;51.462;6.892;2023-12-29T12:54:18;4.88;;;1.10;;
44328;SDS011;30039;51.462;6.892;2023-12-29T12:57:06;2.55;;;1.27;;
44328;SDS011;30039;51.462;6.892;2023-12-29T12:59:52;3.47;;;1.17;;
44328;SDS011;30039;51.462;6.892;2023-12-29T13:02:38;2.50;;;1.10;;
44328;SDS011;30039;51.462;6.892;2023-12-29T13:05:24;1.83;;;0.90;;
44328;SDS011;30039;51.462;6.892;2023-12-29T13:08:09;3.28;;;1.17;;
44328;SDS011;30039;51.462;6.892;2023-12-29T13:10:56;7.10;;;1.83;;
44328;SDS011;30039;51.462;6.892;2023-12-29T13:13:43;5.60;;;2.28;;
44328;SDS011;30039;51.462;6.892;2023-12-29T13:16:30;3.60;;;1.77;;
44328;SDS011;30039;51.462;6.892;2023-12-29T13:22:05;2.65;;;1.50;;
44328;SDS011;30039;51.462;6.892;2023-12-29T13:24:52;4.25;;;1.20;;
44328;SDS011;30039;51.462;6.892;2023-12-29T13:27:38;5.05;;;1.17;;
44328;SDS011;30039;51.462;6.892;2023-12-29T13:30:25;2.58;;;1.40;;
44328;SDS011;30039;51.462;6.892;2023-12-29T13:33:12;3.20;;;1.48;;
44328;SDS011;30039;51.462;6.892;2023-12-29T13:36:09;3.17;;;1.95;;
44328;SDS011;30039;51.462;6.892;2023-12-29T13:39:03;3.90;;;2.00;;
44328;SDS011;30039;51.462;6.892;2023-12-29T13:44:36;2.80;;;1.90;;
44328;SDS011;30039;51.462;6.892;2023-12-29T13:47:23;2.42;;;1.30;;
44328;SDS011;30039;51.462;6.892;2023-12-29T13:50:09;4.75;;;1.42;;
44328;SDS011;30039;51.462;6.892;2023-12-29T13:52:55;2.90;;;1.10;;
44328;SDS011;30039;51.462;6.892;2023-12-29T13:55:41;6.00;;;1.50;;
44328;SDS011;30039;51.462;6.892;2023-12-29T13:58:26;6.25;;;1.40;;
44328;SDS011;30039;51.462;6.892;2023-12-29T14:01:12;2.80;;;1.17;;
44328;SDS011;30039;51.462;6.892;2023-12-29T14:04:02;3.42;;;1.40;;
44328;SDS011;30039;51.462;6.892;2023-12-29T14:06:53;7.50;;;1.90;;
44328;SDS011;30039;51.462;6.892;2023-12-29T14:09:40;5.30;;;1.80;;
44328;SDS011;30039;51.462;6.892;2023-12-29T14:12:26;3.90;;;1.40;;
44328;SDS011;30039;51.462;6.892;2023-12-29T14:15:12;4.85;;;1.60;;
44328;SDS011;30039;51.462;6.892;2023-12-29T14:17:57;5.05;;;1.38;;
44328;SDS011;30039;51.462;6.892;2023-12-29T14:20:43;4.90;;;1.70;;
44328;SDS011;30039;51.462;6.892;2023-12-29T14:23:29;2.42;;;1.27;;
44328;SDS011;30039;51.462;6.892;2023-12-29T14:26:14;4.75;;;1.42;;
44328;SDS011;30039;51.462;6.892;2023-12-29T14:29:03;2.70;;;1.23;;
44328;SDS011;30039;51.462;6.892;2023-12-29T14:31:49;2.88;;;1.33;;
44328;SDS011;30039;51.462;6.892;2023-12-29T14:34:38;4.00;;;1.38;;
44328;SDS011;30039;51.462;6.892;2023-12-29T14:37:23;4.32;;;1.20;;
44328;SDS011;30039;51.462;6.892;2023-12-29T14:40:11;3.40;;;1.60;;
44328;SDS011;30039;51.462;6.892;2023-12-29T14:42:56;3.47;;;1.85;;
44328;SDS011;30039;51.462;6.892;2023-12-29T14:45:42;3.78;;;1.60;;
44328;SDS011;30039;51.462;6.892;2023-12-29T14:48:28;4.95;;;1.27;;
44328;SDS011;30039;51.462;6.892;2023-12-29T14:51:14;2.40;;;1.52;;
44328;SDS011;30039;51.462;6.892;2023-12-29T14:53:59;3.13;;;1.40;;
44328;SDS011;30039;51.462;6.892;2023-12-29T14:56:48;2.00;;;1.20;;
44328;SDS011;30039;51.462;6.892;2023-12-29T14:59:34;2.10;;;1.10;;
44328;SDS011;30039;51.462;6.892;2023-12-29T15:02:21;1.35;;;1.02;;
44328;SDS011;30039;51.462;6.892;2023-12-29T15:05:07;3.95;;;1.30;;
44328;SDS011;30039;51.462;6.892;2023-12-29T15:07:54;1.80;;;0.90;;
44328;SDS011;30039;51.462;6.892;2023-12-29T15:10:40;3.63;;;1.20;;
44328;SDS011;30039;51.462;6.892;2023-12-29T15:13:26;2.33;;;1.08;;
44328;SDS011;30039;51.462;6.892;2023-12-29T15:16:12;4.65;;;1.00;;
44328;SDS011;30039;51.462;6.892;2023-12-29T15:18:58;3.22;;;1.13;;
44328;SDS011;30039;51.462;6.892;2023-12-29T15:21:43;6.45;;;2.13;;
44328;SDS011;30039;51.462;6.892;2023-12-29T15:24:29;3.50;;;1.38;;
44328;SDS011;30039;51.462;6.892;2023-12-29T15:27:15;3.17;;;0.82;;
44328;SDS011;30039;51.462;6.892;2023-12-29T15:30:00;1.13;;;0.80;;
44328;SDS011;30039;51.462;6.892;2023-12-29T15:32:46;2.88;;;0.90;;
44328;SDS011;30039;51.462;6.892;2023-12-29T15:35:31;1.02;;;0.65;;
44328;SDS011;30039;51.462;6.892;2023-12-29T15:38:17;1.65;;;0.90;;
44328;SDS011;30039;51.462;6.892;2023-12-29T15:41:04;1.83;;;0.80;;
44328;SDS011;30039;51.462;6.892;2023-12-29T15:43:50;3.45;;;0.90;;
44328;SDS011;30039;51.462;6.892;2023-12-29T15:46:36;1.23;;;0.88;;
44328;SDS011;30039;51.462;6.892;2023-12-29T15:49:21;1.15;;;0.80;;
44328;SDS011;30039;51.462;6.892;2023-12-29T15:52:07;1.90;;;0.80;;
44328;SDS011;30039;51.462;6.892;2023-12-29T15:54:53;1.15;;;0.90;;
44328;SDS011;30039;51.462;6.892;2023-12-29T15:57:38;2.22;;;0.90;;
44328;SDS011;30039;51.462;6.892;2023-12-29T16:00:24;1.77;;;0.70;;
44328;SDS011;30039;51.462;6.892;2023-12-29T16:03:09;3.22;;;1.15;;
44328;SDS011;30039;51.462;6.892;2023-12-29T16:05:55;1.35;;;1.00;;
44328;SDS011;30039;51.462;6.892;2023-12-29T16:08:40;1.80;;;1.10;;
44328;SDS011;30039;51.462;6.892;2023-12-29T16:11:26;2.65;;;1.17;;
44328;SDS011;30039;51.462;6.892;2023-12-29T16:14:13;2.90;;;1.17;;
44328;SDS011;30039;51.462;6.892;2023-12-29T16:16:58;3.20;;;1.00;;
44328;SDS011;30039;51.462;6.892;2023-12-29T16:19:44;3.65;;;1.20;;
44328;SDS011;30039;51.462;6.892;2023-12-29T16:22:31;2.70;;;1.40;;
44328;SDS011;30039;51.462;6.892;2023-12-29T16:25:17;3.30;;;1.33;;
44328;SDS011;30039;51.462;6.892;2023-12-29T16:28:03;2.80;;;1.30;;
44328;SDS011;30039;51.462;6.892;2023-12-29T16:30:48;2.13;;;1.40;;
44328;SDS011;30039;51.462;6.892;2023-12-29T16:33:38;4.10;;;1.58;;
44328;SDS011;30039;51.462;6.892;2023-12-29T16:36:23;5.28;;;1.42;;
44328;SDS011;30039;51.462;6.892;2023-12-29T16:39:09;5.03;;;1.50;;
44328;SDS011;30039;51.462;6.892;2023-12-29T16:41:56;3.30;;;1.67;;
44328;SDS011;30039;51.462;6.892;2023-12-29T16:44:42;3.25;;;1.50;;
44328;SDS011;30039;51.462;6.892;2023-12-29T16:47:27;4.55;;;2.47;;
44328;SDS011;30039;51.462;6.892;2023-12-29T16:50:13;4.00;;;2.10;;
44328;SDS011;30039;51.462;6.892;2023-12-29T16:52:59;6.43;;;2.78;;
44328;SDS011;30039;51.462;6.892;2023-12-29T16:55:45;5.78;;;2.45;;
44328;SDS011;30039;51.462;6.892;2023-12-29T16:58:31;4.32;;;2.38;;